sensor_id;sensor_type;location;lat;lon;timestamp;pressure;altitude;pressure_sealevel;temperature;humidity
16690;BME280;8458;52.220;9.884;2023-02-01T00:02:12;100767.09;;;4.71;89.20
16690;BME280;8458;52.220;9.884;2023-02-01T00:04:38;100763.09;;;4.67;89.60
16690;BME280;8458;52.220;9.884;2023-02-01T00:07:05;100758.66;;;4.66;89.66
16690;BME280;8458;52.220;9.884;2023-02-01T00:09:33;100752.72;;;4.69;89.57
16690;BME280;8458;52.220;9.884;2023-02-01T00:11:59;100760.28;;;4.74;89.45
16690;BME280;8458;52.220;9.884;2023-02-01T00:14:28;100743.44;;;4.70;89.75
16690;BME280;8458;52.220;9.884;2023-02-01T00:16:54;100742.97;;;4.73;89.81
16690;BME280;8458;52.220;9.884;2023-02-01T00:19:21;100748.75;;;4.65;90.07
16690;BME280;8458;52.220;9.884;2023-02-01T00:21:47;100746.47;;;4.62;90.09
16690;BME280;8458;52.220;9.884;2023-02-01T00:24:14;100750.72;;;4.58;90.18
16690;BME280;8458;52.220;9.884;2023-02-01T00:26:43;100742.25;;;4.59;90.25
16690;BME280;8458;52.220;9.884;2023-02-01T00:29:12;100746.91;;;4.59;90.73
16690;BME280;8458;52.220;9.884;2023-02-01T00:31:39;100743.59;;;4.50;91.18
16690;BME280;8458;52.220;9.884;2023-02-01T00:34:05;100735.50;;;4.55;90.52
16690;BME280;8458;52.220;9.884;2023-02-01T00:36:34;100743.97;;;4.54;90.83
16690;BME280;8458;52.220;9.884;2023-02-01T00:39:00;100735.63;;;4.42;91.25
16690;BME280;8458;52.220;9.884;2023-02-01T00:41:26;100735.22;;;4.38;91.48
16690;BME280;8458;52.220;9.884;2023-02-01T00:43:54;100737.06;;;4.44;91.70
16690;BME280;8458;52.220;9.884;2023-02-01T00:46:21;100743.66;;;4.43;91.67
16690;BME280;8458;52.220;9.884;2023-02-01T00:48:48;100735.41;;;4.43;91.43
16690;BME280;8458;52.220;9.884;2023-02-01T00:51:16;100743.22;;;4.40;91.48
16690;BME280;8458;52.220;9.884;2023-02-01T00:53:44;100735.63;;;4.42;91.42
16690;BME280;8458;52.220;9.884;2023-02-01T00:56:11;100736.84;;;4.46;91.37
16690;BME280;8458;52.220;9.884;2023-02-01T00:58:38;100729.91;;;4.43;91.49
16690;BME280;8458;52.220;9.884;2023-02-01T01:01:08;100722.97;;;4.41;91.31
16690;BME280;8458;52.220;9.884;2023-02-01T01:03:37;100732.25;;;4.40;91.58
16690;BME280;8458;52.220;9.884;2023-02-01T01:06:05;100725.53;;;4.36;91.43
16690;BME280;8458;52.220;9.884;2023-02-01T01:08:32;100715.84;;;4.33;91.17
16690;BME280;8458;52.220;9.884;2023-02-01T01:11:00;100721.94;;;4.35;91.04
16690;BME280;8458;52.220;9.884;2023-02-01T01:13:29;100717.09;;;4.37;91.21
16690;BME280;8458;52.220;9.884;2023-02-01T01:15:56;100708.00;;;4.37;91.17
16690;BME280;8458;52.220;9.884;2023-02-01T01:18:23;100713.53;;;4.30;91.39
16690;BME280;8458;52.220;9.884;2023-02-01T01:20:50;100723.91;;;4.28;91.67
16690;BME280;8458;52.220;9.884;2023-02-01T01:23:16;100719.31;;;4.22;92.17
16690;BME280;8458;52.220;9.884;2023-02-01T01:25:43;100716.34;;;4.23;92.48
16690;BME280;8458;52.220;9.884;2023-02-01T01:28:09;100715.47;;;4.23;92.55
16690;BME280;8458;52.220;9.884;2023-02-01T01:30:36;100714.25;;;4.19;92.53
16690;BME280;8458;52.220;9.884;2023-02-01T01:33:02;100709.22;;;4.16;92.93
16690;BME280;8458;52.220;9.884;2023-02-01T01:35:31;100706.63;;;4.21;92.94
16690;BME280;8458;52.220;9.884;2023-02-01T01:37:59;100706.41;;;4.22;92.85
16690;BME280;8458;52.220;9.884;2023-02-01T01:40:26;100705.34;;;4.23;92.39
16690;BME280;8458;52.220;9.884;2023-02-01T01:42:53;100697.13;;;4.23;92.29
16690;BME280;8458;52.220;9.884;2023-02-01T01:45:24;100704.94;;;4.20;92.28
16690;BME280;8458;52.220;9.884;2023-02-01T01:47:53;100692.06;;;4.20;92.70
16690;BME280;8458;52.220;9.884;2023-02-01T01:50:23;100705.84;;;4.13;92.72
16690;BME280;8458;52.220;9.884;2023-02-01T01:52:53;100695.66;;;4.21;92.72
16690;BME280;8458;52.220;9.884;2023-02-01T01:55:23;100691.84;;;4.22;92.49
16690;BME280;8458;52.220;9.884;2023-02-01T01:57:55;100698.63;;;4.19;92.50
16690;BME280;8458;52.220;9.884;2023-02-01T02:00:24;100689.13;;;4.22;92.52
16690;BME280;8458;52.220;9.884;2023-02-01T02:02:55;100684.84;;;4.26;92.13
16690;BME280;8458;52.220;9.884;2023-02-01T02:05:23;100683.44;;;4.17;92.32
16690;BME280;8458;52.220;9.884;2023-02-01T02:07:53;100679.84;;;4.16;92.16
16690;BME280;8458;52.220;9.884;2023-02-01T02:10:23;100678.81;;;4.17;92.59
16690;BME280;8458;52.220;9.884;2023-02-01T02:13:10;100670.00;;;4.08;92.63
16690;BME280;8458;52.220;9.884;2023-02-01T02:15:41;100685.41;;;4.09;93.06
16690;BME280;8458;52.220;9.884;2023-02-01T02:18:15;100670.81;;;4.09;93.31
16690;BME280;8458;52.220;9.884;2023-02-01T02:20:52;100673.78;;;4.07;93.23
16690;BME280;8458;52.220;9.884;2023-02-01T02:23:48;100679.47;;;4.12;93.43
16690;BME280;8458;52.220;9.884;2023-02-01T02:26:35;100675.47;;;4.08;93.70
16690;BME280;8458;52.220;9.884;2023-02-01T02:29:46;100673.34;;;4.10;93.66
16690;BME280;8458;52.220;9.884;2023-02-01T02:32:38;100670.16;;;4.13;93.88
16690;BME280;8458;52.220;9.884;2023-02-01T02:35:17;100659.59;;;4.17;93.75
16690;BME280;8458;52.220;9.884;2023-02-01T02:37:53;100657.69;;;4.18;93.74
16690;BME280;8458;52.220;9.884;2023-02-01T02:40:30;100653.44;;;4.22;93.68
16690;BME280;8458;52.220;9.884;2023-02-01T02:43:05;100647.50;;;4.25;93.69
16690;BME280;8458;52.220;9.884;2023-02-01T02:46:01;100636.06;;;4.28;93.41
16690;BME280;8458;52.220;9.884;2023-02-01T02:49:07;100639.88;;;4.27;93.41
16690;BME280;8458;52.220;9.884;2023-02-01T02:51:41;100625.25;;;4.33;93.19
16690;BME280;8458;52.220;9.884;2023-02-01T02:54:30;100627.53;;;4.36;92.88
16690;BME280;8458;52.220;9.884;2023-02-01T02:57:13;100616.31;;;4.38;92.50
16690;BME280;8458;52.220;9.884;2023-02-01T03:00:00;100610.63;;;4.39;92.52
16690;BME280;8458;52.220;9.884;2023-02-01T03:02:46;100614.88;;;4.35;92.59
16690;BME280;8458;52.220;9.884;2023-02-01T03:05:34;100605.56;;;4.36;92.52
16690;BME280;8458;52.220;9.884;2023-02-01T03:08:11;100603.44;;;4.38;92.29
16690;BME280;8458;52.220;9.884;2023-02-01T03:10:43;100602.38;;;4.39;92.27
16690;BME280;8458;52.220;9.884;2023-02-01T03:13:15;100602.75;;;4.43;91.96
16690;BME280;8458;52.220;9.884;2023-02-01T03:15:49;100597.94;;;4.38;91.94
16690;BME280;8458;52.220;9.884;2023-02-01T03:18:20;100590.94;;;4.42;91.80
16690;BME280;8458;52.220;9.884;2023-02-01T03:20:51;100591.53;;;4.44;92.18
16690;BME280;8458;52.220;9.884;2023-02-01T03:23:23;100579.72;;;4.44;92.24
16690;BME280;8458;52.220;9.884;2023-02-01T03:25:53;100585.69;;;4.41;92.45
16690;BME280;8458;52.220;9.884;2023-02-01T03:28:23;100580.56;;;4.44;92.56
16690;BME280;8458;52.220;9.884;2023-02-01T03:30:51;100580.09;;;4.47;92.00
16690;BME280;8458;52.220;9.884;2023-02-01T03:33:20;100579.06;;;4.48;91.85
16690;BME280;8458;52.220;9.884;2023-02-01T03:35:52;100583.94;;;4.46;92.47
16690;BME280;8458;52.220;9.884;2023-02-01T03:38:25;100572.03;;;4.53;92.72
16690;BME280;8458;52.220;9.884;2023-02-01T03:40:56;100566.94;;;4.56;92.47
16690;BME280;8458;52.220;9.884;2023-02-01T03:43:24;100569.31;;;4.53;93.49
16690;BME280;8458;52.220;9.884;2023-02-01T03:45:58;100559.75;;;4.55;94.40
16690;BME280;8458;52.220;9.884;2023-02-01T03:48:27;100556.16;;;4.55;94.30
16690;BME280;8458;52.220;9.884;2023-02-01T03:50:57;100545.78;;;4.57;94.79
16690;BME280;8458;52.220;9.884;2023-02-01T03:53:27;100545.66;;;4.52;94.94
16690;BME280;8458;52.220;9.884;2023-02-01T03:55:55;100543.50;;;4.54;95.97
16690;BME280;8458;52.220;9.884;2023-02-01T03:58:23;100540.38;;;4.50;96.74
16690;BME280;8458;52.220;9.884;2023-02-01T04:00:51;100531.13;;;4.44;97.40
16690;BME280;8458;52.220;9.884;2023-02-01T04:03:19;100532.81;;;4.45;97.30
16690;BME280;8458;52.220;9.884;2023-02-01T04:05:46;100530.53;;;4.42;97.45
16690;BME280;8458;52.220;9.884;2023-02-01T04:08:13;100529.47;;;4.43;98.35
16690;BME280;8458;52.220;9.884;2023-02-01T04:10:41;100523.75;;;4.45;98.02
16690;BME280;8458;52.220;9.884;2023-02-01T04:13:07;100528.16;;;4.46;97.80
16690;BME280;8458;52.220;9.884;2023-02-01T04:15:34;100517.41;;;4.44;98.02
16690;BME280;8458;52.220;9.884;2023-02-01T04:18:00;100515.97;;;4.42;98.99
16690;BME280;8458;52.220;9.884;2023-02-01T04:20:27;100517.41;;;4.44;98.25
16690;BME280;8458;52.220;9.884;2023-02-01T04:22:53;100523.13;;;4.43;98.58
16690;BME280;8458;52.220;9.884;2023-02-01T04:25:20;100519.94;;;4.46;98.32
16690;BME280;8458;52.220;9.884;2023-02-01T04:27:48;100509.63;;;4.41;98.66
16690;BME280;8458;52.220;9.884;2023-02-01T04:30:15;100511.00;;;4.51;97.72
16690;BME280;8458;52.220;9.884;2023-02-01T04:32:41;100513.75;;;4.51;97.68
16690;BME280;8458;52.220;9.884;2023-02-01T04:35:08;100507.19;;;4.52;97.10
16690;BME280;8458;52.220;9.884;2023-02-01T04:37:35;100498.03;;;4.58;96.58
16690;BME280;8458;52.220;9.884;2023-02-01T04:40:02;100494.25;;;4.59;95.70
16690;BME280;8458;52.220;9.884;2023-02-01T04:42:29;100487.88;;;4.58;95.21
16690;BME280;8458;52.220;9.884;2023-02-01T04:44:57;100483.25;;;4.59;95.56
16690;BME280;8458;52.220;9.884;2023-02-01T04:47:24;100490.41;;;4.60;94.95
16690;BME280;8458;52.220;9.884;2023-02-01T04:49:50;100477.91;;;4.64;94.69
16690;BME280;8458;52.220;9.884;2023-02-01T04:52:16;100481.25;;;4.66;94.10
16690;BME280;8458;52.220;9.884;2023-02-01T04:54:43;100468.59;;;4.65;94.10
16690;BME280;8458;52.220;9.884;2023-02-01T04:57:09;100459.91;;;4.68;93.82
16690;BME280;8458;52.220;9.884;2023-02-01T04:59:36;100459.91;;;4.68;94.09
16690;BME280;8458;52.220;9.884;2023-02-01T05:02:04;100460.84;;;4.74;93.58
16690;BME280;8458;52.220;9.884;2023-02-01T05:04:30;100450.56;;;4.69;94.40
16690;BME280;8458;52.220;9.884;2023-02-01T05:06:57;100450.19;;;4.65;96.28
16690;BME280;8458;52.220;9.884;2023-02-01T05:09:23;100454.09;;;4.58;97.73
16690;BME280;8458;52.220;9.884;2023-02-01T05:11:50;100462.22;;;4.53;98.74
16690;BME280;8458;52.220;9.884;2023-02-01T05:14:33;100461.28;;;4.59;99.57
16690;BME280;8458;52.220;9.884;2023-02-01T05:17:00;100450.13;;;4.54;99.22
16690;BME280;8458;52.220;9.884;2023-02-01T05:19:28;100449.16;;;4.48;99.30
16690;BME280;8458;52.220;9.884;2023-02-01T05:21:54;100447.25;;;4.48;99.25
16690;BME280;8458;52.220;9.884;2023-02-01T05:24:21;100449.75;;;4.50;99.40
16690;BME280;8458;52.220;9.884;2023-02-01T05:26:48;100438.78;;;4.50;99.33
16690;BME280;8458;52.220;9.884;2023-02-01T05:29:16;100446.19;;;4.49;99.70
16690;BME280;8458;52.220;9.884;2023-02-01T05:31:44;100440.31;;;4.46;100.00
16690;BME280;8458;52.220;9.884;2023-02-01T05:34:11;100441.63;;;4.43;100.00
16690;BME280;8458;52.220;9.884;2023-02-01T05:36:39;100423.00;;;4.45;100.00
16690;BME280;8458;52.220;9.884;2023-02-01T05:39:06;100417.38;;;4.40;100.00
16690;BME280;8458;52.220;9.884;2023-02-01T05:41:32;100441.16;;;4.46;99.99
16690;BME280;8458;52.220;9.884;2023-02-01T05:43:59;100440.75;;;4.43;100.00
16690;BME280;8458;52.220;9.884;2023-02-01T05:46:25;100439.34;;;4.40;100.00
16690;BME280;8458;52.220;9.884;2023-02-01T05:48:51;100441.22;;;4.40;99.83
16690;BME280;8458;52.220;9.884;2023-02-01T05:51:18;100439.47;;;4.45;99.47
16690;BME280;8458;52.220;9.884;2023-02-01T05:53:46;100439.00;;;4.48;99.04
16690;BME280;8458;52.220;9.884;2023-02-01T05:56:12;100438.19;;;4.48;99.09
16690;BME280;8458;52.220;9.884;2023-02-01T05:58:38;100441.75;;;4.48;98.91
16690;BME280;8458;52.220;9.884;2023-02-01T06:01:05;100440.22;;;4.53;98.39
16690;BME280;8458;52.220;9.884;2023-02-01T06:03:31;100432.38;;;4.56;98.50
16690;BME280;8458;52.220;9.884;2023-02-01T06:05:58;100428.78;;;4.56;97.87
16690;BME280;8458;52.220;9.884;2023-02-01T06:08:25;100421.16;;;4.58;97.86
16690;BME280;8458;52.220;9.884;2023-02-01T06:10:58;100431.66;;;4.61;97.53
16690;BME280;8458;52.220;9.884;2023-02-01T06:13:25;100421.28;;;4.63;97.30
16690;BME280;8458;52.220;9.884;2023-02-01T06:15:51;100411.97;;;4.64;98.20
16690;BME280;8458;52.220;9.884;2023-02-01T06:18:18;100418.78;;;4.61;98.07
16690;BME280;8458;52.220;9.884;2023-02-01T06:20:44;100408.47;;;4.57;99.34
16690;BME280;8458;52.220;9.884;2023-02-01T06:23:11;100427.94;;;4.55;99.92
16690;BME280;8458;52.220;9.884;2023-02-01T06:25:37;100398.81;;;4.54;100.00
16690;BME280;8458;52.220;9.884;2023-02-01T06:28:05;100405.22;;;4.48;100.00
16690;BME280;8458;52.220;9.884;2023-02-01T06:30:33;100412.78;;;4.53;100.00
16690;BME280;8458;52.220;9.884;2023-02-01T06:32:59;100409.41;;;4.51;100.00
16690;BME280;8458;52.220;9.884;2023-02-01T06:35:26;100413.59;;;4.53;100.00
16690;BME280;8458;52.220;9.884;2023-02-01T06:37:53;100404.38;;;4.47;100.00
16690;BME280;8458;52.220;9.884;2023-02-01T06:40:19;100425.41;;;4.54;100.00
16690;BME280;8458;52.220;9.884;2023-02-01T06:42:48;100418.88;;;4.55;100.00
16690;BME280;8458;52.220;9.884;2023-02-01T06:45:16;100420.84;;;4.47;100.00
16690;BME280;8458;52.220;9.884;2023-02-01T06:47:42;100433.63;;;4.42;100.00
16690;BME280;8458;52.220;9.884;2023-02-01T06:50:09;100420.03;;;4.28;100.00
16690;BME280;8458;52.220;9.884;2023-02-01T06:52:36;100424.16;;;4.19;100.00
16690;BME280;8458;52.220;9.884;2023-02-01T06:55:03;100441.44;;;4.20;100.00
16690;BME280;8458;52.220;9.884;2023-02-01T06:57:29;100442.09;;;4.22;100.00
16690;BME280;8458;52.220;9.884;2023-02-01T06:59:58;100445.28;;;4.19;100.00
16690;BME280;8458;52.220;9.884;2023-02-01T07:02:26;100449.91;;;4.18;100.00
16690;BME280;8458;52.220;9.884;2023-02-01T07:04:52;100450.91;;;4.24;100.00
16690;BME280;8458;52.220;9.884;2023-02-01T07:07:18;100460.84;;;4.25;100.00
16690;BME280;8458;52.220;9.884;2023-02-01T07:09:47;100467.63;;;4.22;100.00
16690;BME280;8458;52.220;9.884;2023-02-01T07:12:14;100462.94;;;4.23;100.00
16690;BME280;8458;52.220;9.884;2023-02-01T07:14:40;100465.47;;;4.24;100.00
16690;BME280;8458;52.220;9.884;2023-02-01T07:17:07;100449.84;;;4.25;100.00
16690;BME280;8458;52.220;9.884;2023-02-01T07:19:35;100468.44;;;4.23;100.00
16690;BME280;8458;52.220;9.884;2023-02-01T07:22:01;100462.72;;;4.24;100.00
16690;BME280;8458;52.220;9.884;2023-02-01T07:24:28;100466.56;;;4.23;100.00
16690;BME280;8458;52.220;9.884;2023-02-01T07:26:55;100466.31;;;4.25;100.00
16690;BME280;8458;52.220;9.884;2023-02-01T07:29:22;100466.63;;;4.35;100.00
16690;BME280;8458;52.220;9.884;2023-02-01T07:31:48;100452.28;;;4.33;100.00
16690;BME280;8458;52.220;9.884;2023-02-01T07:34:15;100467.25;;;4.37;100.00
16690;BME280;8458;52.220;9.884;2023-02-01T07:36:43;100461.91;;;4.42;100.00
16690;BME280;8458;52.220;9.884;2023-02-01T07:39:09;100462.13;;;4.41;100.00
16690;BME280;8458;52.220;9.884;2023-02-01T07:41:35;100447.56;;;4.40;100.00
16690;BME280;8458;52.220;9.884;2023-02-01T07:44:02;100460.59;;;4.45;100.00
16690;BME280;8458;52.220;9.884;2023-02-01T07:46:28;100451.69;;;4.49;100.00
16690;BME280;8458;52.220;9.884;2023-02-01T07:48:55;100454.09;;;4.58;100.00
16690;BME280;8458;52.220;9.884;2023-02-01T07:51:21;100456.53;;;4.66;100.00
16690;BME280;8458;52.220;9.884;2023-02-01T07:53:49;100458.97;;;4.74;100.00
16690;BME280;8458;52.220;9.884;2023-02-01T07:56:17;100459.09;;;4.79;99.19
16690;BME280;8458;52.220;9.884;2023-02-01T07:58:47;100459.69;;;4.81;99.55
16690;BME280;8458;52.220;9.884;2023-02-01T08:01:15;100469.16;;;4.85;98.44
16690;BME280;8458;52.220;9.884;2023-02-01T08:03:47;100473.75;;;4.92;97.74
16690;BME280;8458;52.220;9.884;2023-02-01T08:06:13;100465.50;;;4.92;97.15
16690;BME280;8458;52.220;9.884;2023-02-01T08:08:40;100473.28;;;4.95;97.88
16690;BME280;8458;52.220;9.884;2023-02-01T08:11:09;100470.53;;;4.95;97.43
16690;BME280;8458;52.220;9.884;2023-02-01T08:13:35;100476.03;;;4.95;96.78
16690;BME280;8458;52.220;9.884;2023-02-01T08:16:04;100480.00;;;4.99;96.20
16690;BME280;8458;52.220;9.884;2023-02-01T08:18:31;100484.16;;;5.01;96.35
16690;BME280;8458;52.220;9.884;2023-02-01T08:21:02;100487.75;;;5.02;96.62
16690;BME280;8458;52.220;9.884;2023-02-01T08:23:29;100490.06;;;5.05;96.55
16690;BME280;8458;52.220;9.884;2023-02-01T08:26:04;100485.16;;;5.07;96.41
16690;BME280;8458;52.220;9.884;2023-02-01T08:28:32;100492.78;;;5.05;96.69
16690;BME280;8458;52.220;9.884;2023-02-01T08:30:59;100496.59;;;5.04;96.86
16690;BME280;8458;52.220;9.884;2023-02-01T08:33:25;100492.78;;;5.05;95.72
16690;BME280;8458;52.220;9.884;2023-02-01T08:35:51;100493.28;;;5.14;94.65
16690;BME280;8458;52.220;9.884;2023-02-01T08:38:18;100487.72;;;5.20;92.59
16690;BME280;8458;52.220;9.884;2023-02-01T08:40:44;100491.66;;;5.25;92.05
16690;BME280;8458;52.220;9.884;2023-02-01T08:43:11;100495.03;;;5.27;91.99
16690;BME280;8458;52.220;9.884;2023-02-01T08:45:39;100506.03;;;5.27;92.91
16690;BME280;8458;52.220;9.884;2023-02-01T08:48:06;100498.13;;;5.30;91.44
16690;BME280;8458;52.220;9.884;2023-02-01T08:50:32;100512.25;;;5.34;91.71
16690;BME280;8458;52.220;9.884;2023-02-01T08:52:59;100499.94;;;5.36;91.19
16690;BME280;8458;52.220;9.884;2023-02-01T08:55:25;100498.03;;;5.37;91.20
16690;BME280;8458;52.220;9.884;2023-02-01T08:57:52;100503.19;;;5.45;90.49
16690;BME280;8458;52.220;9.884;2023-02-01T09:00:19;100497.22;;;5.48;90.23
16690;BME280;8458;52.220;9.884;2023-02-01T09:02:47;100488.50;;;5.51;88.64
16690;BME280;8458;52.220;9.884;2023-02-01T09:05:13;100501.75;;;5.54;88.68
16690;BME280;8458;52.220;9.884;2023-02-01T09:07:41;100501.28;;;5.57;88.56
16690;BME280;8458;52.220;9.884;2023-02-01T09:10:09;100505.72;;;5.59;89.27
16690;BME280;8458;52.220;9.884;2023-02-01T09:12:35;100497.75;;;5.69;88.81
16690;BME280;8458;52.220;9.884;2023-02-01T09:15:03;100510.41;;;5.70;88.44
16690;BME280;8458;52.220;9.884;2023-02-01T09:17:32;100505.53;;;5.72;87.49
16690;BME280;8458;52.220;9.884;2023-02-01T09:20:00;100505.16;;;5.80;86.95
16690;BME280;8458;52.220;9.884;2023-02-01T09:22:27;100492.38;;;5.86;86.58
16690;BME280;8458;52.220;9.884;2023-02-01T09:24:53;100506.72;;;5.88;87.02
16690;BME280;8458;52.220;9.884;2023-02-01T09:27:20;100500.75;;;5.91;86.60
16690;BME280;8458;52.220;9.884;2023-02-01T09:29:47;100504.97;;;5.93;86.68
16690;BME280;8458;52.220;9.884;2023-02-01T09:32:17;100507.31;;;5.90;87.91
16690;BME280;8458;52.220;9.884;2023-02-01T09:34:44;100502.06;;;5.88;88.56
16690;BME280;8458;52.220;9.884;2023-02-01T09:37:11;100503.97;;;5.76;89.96
16690;BME280;8458;52.220;9.884;2023-02-01T09:39:38;100504.19;;;5.74;90.11
16690;BME280;8458;52.220;9.884;2023-02-01T09:42:16;100510.41;;;5.70;91.39
16690;BME280;8458;52.220;9.884;2023-02-01T09:44:55;100514.25;;;5.69;90.79
16690;BME280;8458;52.220;9.884;2023-02-01T09:47:27;100513.88;;;5.65;92.03
16690;BME280;8458;52.220;9.884;2023-02-01T09:49:59;100519.00;;;5.62;91.21
16690;BME280;8458;52.220;9.884;2023-02-01T09:52:34;100509.69;;;5.63;91.60
16690;BME280;8458;52.220;9.884;2023-02-01T09:55:07;100511.13;;;5.65;91.25
16690;BME280;8458;52.220;9.884;2023-02-01T09:57:43;100516.28;;;5.73;90.49
16690;BME280;8458;52.220;9.884;2023-02-01T10:00:17;100507.34;;;5.78;90.14
16690;BME280;8458;52.220;9.884;2023-02-01T10:02:46;100518.34;;;5.78;90.74
16690;BME280;8458;52.220;9.884;2023-02-01T10:05:15;100531.63;;;5.81;90.34
16690;BME280;8458;52.220;9.884;2023-02-01T10:07:49;100512.38;;;5.81;90.09
16690;BME280;8458;52.220;9.884;2023-02-01T10:10:25;100517.88;;;5.81;90.12
16690;BME280;8458;52.220;9.884;2023-02-01T10:13:19;100498.72;;;5.86;89.25
16690;BME280;8458;52.220;9.884;2023-02-01T10:15:58;100507.22;;;5.85;89.81
16690;BME280;8458;52.220;9.884;2023-02-01T10:18:46;100501.72;;;5.85;89.41
16690;BME280;8458;52.220;9.884;2023-02-01T10:21:28;100498.47;;;5.88;88.93
16690;BME280;8458;52.220;9.884;2023-02-01T10:24:31;100519.78;;;5.92;88.94
16690;BME280;8458;52.220;9.884;2023-02-01T10:27:02;100493.03;;;6.00;88.67
16690;BME280;8458;52.220;9.884;2023-02-01T10:29:34;100491.56;;;5.97;87.56
16690;BME280;8458;52.220;9.884;2023-02-01T10:32:03;100488.47;;;6.05;87.42
16690;BME280;8458;52.220;9.884;2023-02-01T10:34:36;100491.09;;;6.12;87.04
16690;BME280;8458;52.220;9.884;2023-02-01T10:37:14;100494.09;;;6.10;87.41
16690;BME280;8458;52.220;9.884;2023-02-01T10:39:46;100480.09;;;6.12;87.17
16690;BME280;8458;52.220;9.884;2023-02-01T10:42:14;100485.13;;;6.15;86.89
16690;BME280;8458;52.220;9.884;2023-02-01T10:44:43;100486.28;;;6.19;87.14
16690;BME280;8458;52.220;9.884;2023-02-01T10:47:13;100479.72;;;6.20;86.30
16690;BME280;8458;52.220;9.884;2023-02-01T10:49:44;100489.66;;;6.21;86.12
16690;BME280;8458;52.220;9.884;2023-02-01T10:52:16;100486.28;;;6.19;86.15
16690;BME280;8458;52.220;9.884;2023-02-01T10:54:43;100472.19;;;6.16;85.20
16690;BME280;8458;52.220;9.884;2023-02-01T10:57:20;100481.41;;;6.21;85.00
16690;BME280;8458;52.220;9.884;2023-02-01T10:59:48;100480.78;;;6.19;85.24
16690;BME280;8458;52.220;9.884;2023-02-01T11:02:20;100477.78;;;6.21;85.16
16690;BME280;8458;52.220;9.884;2023-02-01T11:04:58;100479.13;;;6.18;84.54
16690;BME280;8458;52.220;9.884;2023-02-01T11:07:26;100474.69;;;6.17;84.38
16690;BME280;8458;52.220;9.884;2023-02-01T11:09:54;100475.75;;;6.16;85.62
16690;BME280;8458;52.220;9.884;2023-02-01T11:12:31;100466.09;;;6.14;84.96
16690;BME280;8458;52.220;9.884;2023-02-01T11:15:02;100471.94;;;6.17;85.34
16690;BME280;8458;52.220;9.884;2023-02-01T11:17:34;100460.94;;;6.17;84.89
16690;BME280;8458;52.220;9.884;2023-02-01T11:20:05;100448.22;;;6.16;84.21
16690;BME280;8458;52.220;9.884;2023-02-01T11:22:32;100453.75;;;6.16;84.13
16690;BME280;8458;52.220;9.884;2023-02-01T11:25:01;100448.72;;;6.13;83.90
16690;BME280;8458;52.220;9.884;2023-02-01T11:27:35;100449.34;;;6.15;83.32
16690;BME280;8458;52.220;9.884;2023-02-01T11:30:02;100452.56;;;6.12;84.23
16690;BME280;8458;52.220;9.884;2023-02-01T11:32:29;100446.19;;;6.12;83.91
16690;BME280;8458;52.220;9.884;2023-02-01T11:34:59;100447.06;;;6.12;83.34
16690;BME280;8458;52.220;9.884;2023-02-01T11:37:29;100435.56;;;6.15;83.85
16690;BME280;8458;52.220;9.884;2023-02-01T11:39:58;100432.44;;;6.23;84.50
16690;BME280;8458;52.220;9.884;2023-02-01T11:42:26;100424.41;;;6.22;84.45
16690;BME280;8458;52.220;9.884;2023-02-01T11:45:17;100425.72;;;6.19;84.12
16690;BME280;8458;52.220;9.884;2023-02-01T11:47:44;100407.53;;;6.18;84.19
16690;BME280;8458;52.220;9.884;2023-02-01T11:50:15;100398.19;;;6.19;84.74
16690;BME280;8458;52.220;9.884;2023-02-01T11:52:57;100405.63;;;6.19;85.05
16690;BME280;8458;52.220;9.884;2023-02-01T11:55:39;100378.34;;;6.17;84.96
16690;BME280;8458;52.220;9.884;2023-02-01T11:58:22;100374.03;;;6.21;85.35
16690;BME280;8458;52.220;9.884;2023-02-01T12:01:05;100366.00;;;6.20;86.15
16690;BME280;8458;52.220;9.884;2023-02-01T12:06:31;100358.47;;;6.15;86.31
16690;BME280;8458;52.220;9.884;2023-02-01T12:09:13;100357.28;;;6.11;87.74
16690;BME280;8458;52.220;9.884;2023-02-01T12:11:53;100350.09;;;6.10;87.91
16690;BME280;8458;52.220;9.884;2023-02-01T12:14:36;100343.41;;;6.06;88.11
16690;BME280;8458;52.220;9.884;2023-02-01T12:17:25;100327.16;;;6.04;89.48
16690;BME280;8458;52.220;9.884;2023-02-01T12:20:07;100337.19;;;5.99;89.69
16690;BME280;8458;52.220;9.884;2023-02-01T12:22:44;100308.44;;;5.95;89.96
16690;BME280;8458;52.220;9.884;2023-02-01T12:25:28;100304.50;;;6.02;89.49
16690;BME280;8458;52.220;9.884;2023-02-01T12:28:34;100300.09;;;6.01;89.08
16690;BME280;8458;52.220;9.884;2023-02-01T12:31:21;100291.38;;;6.04;89.96
16690;BME280;8458;52.220;9.884;2023-02-01T12:34:02;100284.50;;;6.07;89.47
16690;BME280;8458;52.220;9.884;2023-02-01T12:36:34;100268.59;;;6.09;89.38
16690;BME280;8458;52.220;9.884;2023-02-01T12:39:07;100263.59;;;6.06;89.09
16690;BME280;8458;52.220;9.884;2023-02-01T12:41:47;100255.34;;;6.06;90.64
16690;BME280;8458;52.220;9.884;2023-02-01T12:44:24;100250.41;;;6.08;92.73
16690;BME280;8458;52.220;9.884;2023-02-01T12:46:55;100265.16;;;6.02;92.39
16690;BME280;8458;52.220;9.884;2023-02-01T12:49:30;100269.59;;;5.79;94.36
16690;BME280;8458;52.220;9.884;2023-02-01T12:52:02;100258.66;;;5.67;95.56
16690;BME280;8458;52.220;9.884;2023-02-01T12:54:35;100263.34;;;5.55;96.70
16690;BME280;8458;52.220;9.884;2023-02-01T12:57:06;100259.00;;;5.59;99.54
16690;BME280;8458;52.220;9.884;2023-02-01T12:59:39;100254.84;;;5.56;99.12
16690;BME280;8458;52.220;9.884;2023-02-01T13:02:13;100263.09;;;5.56;100.00
16690;BME280;8458;52.220;9.884;2023-02-01T13:04:52;100245.25;;;5.59;100.00
16690;BME280;8458;52.220;9.884;2023-02-01T13:07:22;100245.25;;;5.59;99.05
16690;BME280;8458;52.220;9.884;2023-02-01T13:09:53;100240.00;;;5.57;100.00
16690;BME280;8458;52.220;9.884;2023-02-01T13:12:36;100236.41;;;5.57;99.96
16690;BME280;8458;52.220;9.884;2023-02-01T13:15:09;100235.69;;;5.50;100.00
16690;BME280;8458;52.220;9.884;2023-02-01T13:17:40;100236.06;;;5.53;100.00
16690;BME280;8458;52.220;9.884;2023-02-01T13:20:17;100231.66;;;5.52;100.00
16690;BME280;8458;52.220;9.884;2023-02-01T13:22:46;100233.31;;;5.53;100.00
16690;BME280;8458;52.220;9.884;2023-02-01T13:25:19;100237.63;;;5.49;100.00
16690;BME280;8458;52.220;9.884;2023-02-01T13:27:53;100231.53;;;5.47;100.00
16690;BME280;8458;52.220;9.884;2023-02-01T13:30:23;100239.66;;;5.42;100.00
16690;BME280;8458;52.220;9.884;2023-02-01T13:35:52;100256.91;;;5.26;100.00